createdAt,value
2017-11-10T00:00:30.311Z,0
2017-11-10T00:01:32.191Z,0
2017-11-10T00:02:34.070Z,0
2017-11-10T00:03:48.220Z,0
2017-11-10T00:04:50.100Z,0
2017-11-10T00:05:51.981Z,0
2017-11-10T00:06:53.859Z,0
2017-11-10T00:07:55.677Z,0
2017-11-10T00:08:57.495Z,0
2017-11-10T00:09:59.371Z,0
2017-11-10T00:11:01.252Z,0
2017-11-10T00:12:03.130Z,0
2017-11-10T00:13:17.277Z,0
2017-11-10T00:14:19.157Z,0
2017-11-10T00:15:21.040Z,0
2017-11-10T00:16:22.915Z,0
2017-11-10T00:17:24.732Z,0
2017-11-10T00:18:26.552Z,0
2017-11-10T00:19:28.420Z,0
2017-11-10T00:20:30.299Z,0
2017-11-10T00:21:32.178Z,0
2017-11-10T00:22:46.328Z,0
2017-11-10T00:23:48.209Z,0
2017-11-10T00:24:50.086Z,0
2017-11-10T00:25:51.965Z,0
2017-11-10T00:26:53.788Z,0
2017-11-10T00:27:55.594Z,0
2017-11-10T00:28:57.433Z,0
2017-11-10T00:29:59.244Z,0
2017-11-10T00:31:01.061Z,0
2017-11-10T00:32:15.212Z,0
2017-11-10T00:33:17.092Z,0
2017-11-10T00:34:18.968Z,0
2017-11-10T00:35:20.845Z,0
2017-11-10T00:36:22.664Z,0
2017-11-10T00:37:24.479Z,0
2017-11-10T00:38:26.357Z,0
2017-11-10T00:39:28.239Z,0
2017-11-10T00:40:30.114Z,0
2017-11-10T00:41:44.264Z,0
2017-11-10T00:42:46.145Z,0
2017-11-10T00:43:48.027Z,0
2017-11-10T00:44:49.910Z,0
2017-11-10T00:45:51.724Z,0
2017-11-10T00:46:53.538Z,0
2017-11-10T00:47:55.417Z,0
2017-11-10T00:48:57.292Z,0
2017-11-10T00:49:59.172Z,0
2017-11-10T00:51:13.322Z,0
2017-11-10T00:52:15.202Z,0
2017-11-10T00:53:17.083Z,0
2017-11-10T00:54:18.962Z,0
2017-11-10T00:55:20.778Z,0
2017-11-10T00:56:22.596Z,0
2017-11-10T00:57:24.482Z,0
2017-11-10T00:58:26.354Z,0
2017-11-10T00:59:28.234Z,0
2017-11-10T01:00:42.404Z,0
2017-11-10T01:01:44.265Z,0
2017-11-10T01:02:46.143Z,0
2017-11-10T01:03:48.024Z,0
2017-11-10T01:04:49.843Z,0
2017-11-10T01:05:51.663Z,0
2017-11-10T01:06:53.544Z,0
2017-11-10T01:07:55.421Z,0
2017-11-10T01:08:57.302Z,0
2017-11-10T01:10:11.455Z,0
2017-11-10T01:11:13.336Z,0
2017-11-10T01:12:15.217Z,0
2017-11-10T01:13:17.096Z,0
2017-11-10T01:14:18.914Z,0
2017-11-10T01:15:20.730Z,0
2017-11-10T01:16:22.623Z,0
2017-11-10T01:17:24.493Z,0
2017-11-10T01:18:26.377Z,0
2017-11-10T01:19:40.530Z,0
2017-11-10T01:20:42.410Z,0
2017-11-10T01:21:44.291Z,0
2017-11-10T01:22:46.171Z,0
2017-11-10T01:23:47.988Z,0
2017-11-10T01:24:49.806Z,0
2017-11-10T01:25:51.687Z,0
2017-11-10T01:26:53.566Z,0
2017-11-10T01:27:55.447Z,0
2017-11-10T01:29:09.610Z,0
2017-11-10T01:30:11.488Z,0
2017-11-10T01:31:13.376Z,0
2017-11-10T01:32:15.252Z,0
2017-11-10T01:33:17.072Z,0
2017-11-10T01:34:18.890Z,0
2017-11-10T01:35:20.770Z,0
2017-11-10T01:36:22.647Z,0
2017-11-10T01:37:24.533Z,0
2017-11-10T01:38:38.683Z,0
2017-11-10T01:39:40.563Z,0
2017-11-10T01:40:42.447Z,0
2017-11-10T01:41:44.327Z,0
2017-11-10T01:42:46.145Z,0
2017-11-10T01:43:47.962Z,0
2017-11-10T01:44:49.841Z,0
2017-11-10T01:45:51.723Z,0
2017-11-10T01:46:53.604Z,0
2017-11-10T01:48:07.807Z,0
2017-11-10T01:49:09.684Z,0
2017-11-10T01:50:11.565Z,0
2017-11-10T01:51:13.447Z,0
2017-11-10T01:52:15.261Z,0
2017-11-10T01:53:17.078Z,0
2017-11-10T01:54:18.959Z,0
2017-11-10T01:55:20.837Z,0
2017-11-10T01:56:22.721Z,0
2017-11-10T01:57:36.870Z,0
2017-11-10T01:58:38.751Z,0
2017-11-10T01:59:40.635Z,0
2017-11-10T02:00:42.514Z,0
2017-11-10T02:01:44.334Z,0
2017-11-10T02:02:46.148Z,0
2017-11-10T02:03:48.033Z,0
2017-11-10T02:04:49.910Z,0
2017-11-10T02:05:51.784Z,0
2017-11-10T02:07:05.942Z,0
2017-11-10T02:08:07.816Z,0
2017-11-10T02:09:09.699Z,0
2017-11-10T02:10:11.579Z,0
2017-11-10T02:11:13.396Z,0
2017-11-10T02:12:15.213Z,0
2017-11-10T02:13:17.092Z,0
2017-11-10T02:14:18.972Z,0
2017-11-10T02:15:20.851Z,0
2017-11-10T02:16:35.055Z,0
2017-11-10T02:17:36.936Z,0
2017-11-10T02:18:38.818Z,0
2017-11-10T02:19:40.696Z,0
2017-11-10T02:20:42.512Z,0
2017-11-10T02:21:44.329Z,0
2017-11-10T02:22:46.209Z,0
2017-11-10T02:23:48.086Z,0
2017-11-10T02:24:49.969Z,0
2017-11-10T02:26:04.122Z,0
2017-11-10T02:27:05.997Z,0
2017-11-10T02:28:07.878Z,0
2017-11-10T02:29:09.756Z,0
2017-11-10T02:30:11.576Z,0
2017-11-10T02:31:13.389Z,0
2017-11-10T02:32:15.271Z,0
2017-11-10T02:33:17.149Z,0
2017-11-10T02:34:19.034Z,0
2017-11-10T02:35:33.180Z,0
2017-11-10T02:36:35.061Z,0
2017-11-10T02:37:36.942Z,0
2017-11-10T02:38:38.825Z,0
2017-11-10T02:39:40.641Z,0
2017-11-10T02:40:42.460Z,0
2017-11-10T02:41:44.339Z,0
2017-11-10T02:42:46.219Z,0
2017-11-10T02:43:48.101Z,0
2017-11-10T02:45:02.251Z,0
2017-11-10T02:46:04.140Z,0
2017-11-10T02:47:06.014Z,0
2017-11-10T02:48:07.901Z,0
2017-11-10T02:49:09.714Z,0
2017-11-10T02:50:11.529Z,0
2017-11-10T02:51:13.419Z,0
2017-11-10T02:52:15.291Z,0
2017-11-10T02:53:17.174Z,0
2017-11-10T02:54:31.339Z,0
2017-11-10T02:55:33.212Z,0
2017-11-10T02:56:35.086Z,0
2017-11-10T02:57:36.970Z,0
2017-11-10T02:58:38.789Z,0
2017-11-10T02:59:40.607Z,0
2017-11-10T03:00:42.486Z,0
2017-11-10T03:01:44.366Z,0
2017-11-10T03:02:46.249Z,0
2017-11-10T03:04:00.400Z,0
2017-11-10T03:05:02.286Z,0
2017-11-10T03:06:04.167Z,0
2017-11-10T03:07:06.048Z,0
2017-11-10T03:08:07.866Z,0
2017-11-10T03:09:09.682Z,0
2017-11-10T03:10:11.562Z,0
2017-11-10T03:11:13.442Z,0
2017-11-10T03:12:15.326Z,0
2017-11-10T03:13:29.477Z,0
2017-11-10T03:14:31.354Z,0
2017-11-10T03:15:33.238Z,0
2017-11-10T03:16:35.123Z,0
2017-11-10T03:17:36.940Z,0
2017-11-10T03:18:38.753Z,0
2017-11-10T03:19:40.636Z,0
2017-11-10T03:20:42.515Z,0
2017-11-10T03:21:44.399Z,0
2017-11-10T03:22:58.549Z,0
2017-11-10T03:24:00.428Z,0
2017-11-10T03:25:02.309Z,0
2017-11-10T03:26:04.196Z,0
2017-11-10T03:27:06.014Z,0
2017-11-10T03:28:07.832Z,0
2017-11-10T03:29:09.710Z,0
2017-11-10T03:30:11.925Z,0
2017-11-10T03:31:13.771Z,0
2017-11-10T03:32:27.967Z,0
2017-11-10T03:33:29.850Z,0
2017-11-10T03:34:31.730Z,0
2017-11-10T03:35:33.613Z,0
2017-11-10T03:36:35.429Z,0
2017-11-10T03:37:37.240Z,0
2017-11-10T03:38:39.123Z,0
2017-11-10T03:39:41.004Z,0
2017-11-10T03:40:42.895Z,0
2017-11-10T03:41:57.034Z,0
2017-11-10T03:42:58.915Z,0
2017-11-10T03:44:00.798Z,0
2017-11-10T03:45:02.680Z,0
2017-11-10T03:46:04.497Z,0
2017-11-10T03:47:06.313Z,0
2017-11-10T03:48:08.196Z,0
2017-11-10T03:49:10.076Z,0
2017-11-10T03:50:11.962Z,0
2017-11-10T03:51:26.112Z,0
2017-11-10T03:52:27.987Z,0
2017-11-10T03:53:29.870Z,0
2017-11-10T03:54:31.753Z,0
2017-11-10T03:55:33.572Z,0
2017-11-10T03:56:35.388Z,0
2017-11-10T03:57:37.268Z,0
2017-11-10T03:58:39.152Z,0
2017-11-10T03:59:41.029Z,0
2017-11-10T04:00:55.180Z,0
2017-11-10T04:01:57.055Z,0
2017-11-10T04:02:58.937Z,0
2017-11-10T04:04:00.818Z,0
2017-11-10T04:05:02.634Z,0
2017-11-10T04:06:04.445Z,0
2017-11-10T04:07:06.341Z,0
2017-11-10T04:08:08.206Z,0
2017-11-10T04:09:10.088Z,0
2017-11-10T04:10:24.238Z,0
2017-11-10T04:11:26.115Z,0
2017-11-10T04:12:28.002Z,0
2017-11-10T04:13:29.890Z,0
2017-11-10T04:14:31.702Z,0
2017-11-10T04:15:33.516Z,0
2017-11-10T04:16:35.398Z,0
2017-11-10T04:17:37.274Z,0
2017-11-10T04:18:39.161Z,0
2017-11-10T04:19:53.311Z,0
2017-11-10T04:20:55.190Z,0
2017-11-10T04:21:57.073Z,0
2017-11-10T04:22:58.964Z,0
2017-11-10T04:24:00.769Z,0
2017-11-10T04:25:02.585Z,0
2017-11-10T04:26:04.472Z,0
2017-11-10T04:27:06.348Z,0
2017-11-10T04:28:08.234Z,0
2017-11-10T04:29:22.379Z,0
2017-11-10T04:30:24.258Z,0
2017-11-10T04:31:26.140Z,0
2017-11-10T04:32:28.024Z,0
2017-11-10T04:33:29.846Z,0
2017-11-10T04:34:31.655Z,0
2017-11-10T04:35:33.542Z,0
2017-11-10T04:36:35.415Z,0
2017-11-10T04:37:37.300Z,0
2017-11-10T04:38:51.451Z,0
2017-11-10T04:39:53.330Z,0
2017-11-10T04:40:55.211Z,0
2017-11-10T04:41:57.093Z,0
2017-11-10T04:42:58.907Z,0
2017-11-10T04:44:00.720Z,0
2017-11-10T04:45:02.602Z,0
2017-11-10T04:46:04.479Z,0
2017-11-10T04:47:06.360Z,0
2017-11-10T04:48:20.511Z,0
2017-11-10T04:49:22.388Z,0
2017-11-10T04:50:24.273Z,0
2017-11-10T04:51:26.155Z,0
2017-11-10T04:52:27.973Z,0
2017-11-10T04:53:29.786Z,0
2017-11-10T04:54:31.668Z,0
2017-11-10T04:55:33.548Z,0
2017-11-10T04:56:35.436Z,0
2017-11-10T04:57:49.584Z,0
2017-11-10T04:58:51.463Z,0
2017-11-10T04:59:53.347Z,0
2017-11-10T05:00:55.229Z,0
2017-11-10T05:01:57.043Z,0
2017-11-10T05:02:58.861Z,0
2017-11-10T05:04:00.752Z,0
2017-11-10T05:05:02.622Z,0
2017-11-10T05:06:04.503Z,0
2017-11-10T05:07:18.655Z,0
2017-11-10T05:08:20.533Z,0
2017-11-10T05:09:22.414Z,0
2017-11-10T05:10:24.295Z,0
2017-11-10T05:11:26.112Z,0
2017-11-10T05:12:27.928Z,0
2017-11-10T05:13:29.807Z,0
2017-11-10T05:14:31.684Z,0
2017-11-10T05:15:33.565Z,0
2017-11-10T05:16:47.712Z,0
2017-11-10T05:17:49.617Z,0
2017-11-10T05:18:51.478Z,0
2017-11-10T05:19:53.360Z,0
2017-11-10T05:20:55.177Z,0
2017-11-10T05:21:56.989Z,0
2017-11-10T05:22:58.870Z,0
2017-11-10T05:24:00.748Z,0
2017-11-10T05:25:02.633Z,0
2017-11-10T05:26:16.781Z,0
2017-11-10T05:27:18.661Z,0
2017-11-10T05:28:20.543Z,0
2017-11-10T05:29:22.426Z,0
2017-11-10T05:30:24.239Z,0
2017-11-10T05:31:26.052Z,0
2017-11-10T05:32:27.933Z,0
2017-11-10T05:33:29.805Z,0
2017-11-10T05:34:31.686Z,0
2017-11-10T05:35:45.893Z,0
2017-11-10T05:36:47.765Z,0
2017-11-10T05:37:49.647Z,0
2017-11-10T05:38:51.531Z,0
2017-11-10T05:39:53.408Z,0
2017-11-10T05:40:55.185Z,0
2017-11-10T05:41:57.066Z,0
2017-11-10T05:42:58.942Z,0
2017-11-10T05:44:00.826Z,0
2017-11-10T05:45:14.975Z,0
2017-11-10T05:46:16.851Z,0
2017-11-10T05:47:18.734Z,0
2017-11-10T05:48:20.614Z,0
2017-11-10T05:49:22.433Z,0
2017-11-10T05:50:24.249Z,0
2017-11-10T05:51:26.132Z,0
2017-11-10T05:52:28.014Z,0
2017-11-10T05:53:29.894Z,0
2017-11-10T05:54:44.043Z,0
2017-11-10T05:55:45.923Z,0
2017-11-10T05:56:47.807Z,0
2017-11-10T05:57:49.691Z,0
2017-11-10T05:58:51.509Z,0
2017-11-10T05:59:53.327Z,0
2017-11-10T06:00:55.208Z,0
2017-11-10T06:01:57.087Z,0
2017-11-10T06:02:58.972Z,0
2017-11-10T06:04:13.123Z,5
2017-11-10T06:05:15.004Z,5
2017-11-10T06:06:16.886Z,5
2017-11-10T06:07:18.769Z,5
2017-11-10T06:08:20.589Z,5
2017-11-10T06:09:22.407Z,5
2017-11-10T06:10:24.288Z,5
2017-11-10T06:11:26.169Z,10
2017-11-10T06:12:28.053Z,10
2017-11-10T06:13:42.205Z,10
2017-11-10T06:14:44.087Z,10
2017-11-10T06:15:45.970Z,5
2017-11-10T06:16:47.858Z,5
2017-11-10T06:17:49.676Z,5
2017-11-10T06:18:51.488Z,5
2017-11-10T06:19:53.385Z,5
2017-11-10T06:20:55.257Z,5
2017-11-10T06:21:57.141Z,5
2017-11-10T06:23:11.296Z,5
2017-11-10T06:24:13.185Z,10
2017-11-10T06:25:15.067Z,10
2017-11-10T06:26:16.954Z,10
2017-11-10T06:27:18.773Z,10
2017-11-10T06:28:20.590Z,10
2017-11-10T06:29:22.473Z,10
2017-11-10T06:30:24.359Z,10
2017-11-10T06:31:26.244Z,15
2017-11-10T06:32:40.394Z,15
2017-11-10T06:33:42.276Z,15
2017-11-10T06:34:44.161Z,15
2017-11-10T06:35:46.048Z,15
2017-11-10T06:36:47.868Z,20
2017-11-10T06:37:49.686Z,20
2017-11-10T06:38:51.568Z,20
2017-11-10T06:39:53.460Z,20
2017-11-10T06:40:55.352Z,25
2017-11-10T06:42:09.499Z,25
2017-11-10T06:43:11.385Z,25
2017-11-10T06:44:13.268Z,30
2017-11-10T06:45:15.158Z,30
2017-11-10T06:46:16.976Z,35
2017-11-10T06:47:18.793Z,35
2017-11-10T06:48:20.678Z,40
2017-11-10T06:49:22.565Z,45
2017-11-10T06:50:24.452Z,45
2017-11-10T06:51:38.614Z,45
2017-11-10T06:52:40.488Z,45
2017-11-10T06:53:42.379Z,50
2017-11-10T06:54:44.262Z,45
2017-11-10T06:55:46.087Z,45
2017-11-10T06:56:47.905Z,40
2017-11-10T06:57:49.787Z,40
2017-11-10T06:58:51.631Z,40
2017-11-10T06:59:53.450Z,40
2017-11-10T07:01:07.602Z,40
2017-11-10T07:02:09.489Z,40
2017-11-10T07:03:11.371Z,40
2017-11-10T07:04:13.257Z,40
2017-11-10T07:05:15.078Z,40
2017-11-10T07:06:16.896Z,40
2017-11-10T07:07:18.779Z,45
2017-11-10T07:08:20.664Z,45
2017-11-10T07:09:22.550Z,45
2017-11-10T07:10:36.702Z,45
2017-11-10T07:11:38.587Z,40
2017-11-10T07:12:40.472Z,45
2017-11-10T07:13:42.361Z,50
2017-11-10T07:14:44.181Z,55
2017-11-10T07:15:46.005Z,60
2017-11-10T07:16:47.883Z,65
2017-11-10T07:17:49.768Z,65
2017-11-10T07:18:51.655Z,65
2017-11-10T07:20:05.808Z,65
2017-11-10T07:21:07.692Z,65
2017-11-10T07:22:09.579Z,70
2017-11-10T07:23:11.468Z,70
2017-11-10T07:24:13.292Z,65
2017-11-10T07:25:15.112Z,65
2017-11-10T07:26:16.997Z,65
2017-11-10T07:27:18.885Z,70
2017-11-10T07:28:20.775Z,70
2017-11-10T07:29:34.931Z,70
2017-11-10T07:30:36.816Z,70
2017-11-10T07:31:38.704Z,70
2017-11-10T07:32:40.594Z,70
2017-11-10T07:33:42.417Z,70
2017-11-10T07:34:44.239Z,65
2017-11-10T07:35:46.120Z,65
2017-11-10T07:36:48.003Z,60
2017-11-10T07:37:49.904Z,60
2017-11-10T07:39:04.050Z,60
2017-11-10T07:40:05.943Z,60
2017-11-10T07:41:07.825Z,55
2017-11-10T07:42:09.723Z,55
2017-11-10T07:43:11.544Z,55
2017-11-10T07:44:13.363Z,55
2017-11-10T07:45:15.252Z,50
2017-11-10T07:46:17.139Z,50
2017-11-10T07:47:18.983Z,55
2017-11-10T07:48:33.228Z,55
2017-11-10T07:49:35.113Z,55
2017-11-10T07:50:37.004Z,55
2017-11-10T07:51:38.891Z,55
2017-11-10T07:52:40.711Z,60
2017-11-10T07:53:42.533Z,65
2017-11-10T07:54:44.420Z,70
2017-11-10T07:55:46.317Z,70
2017-11-10T07:56:48.199Z,75
2017-11-10T07:58:02.351Z,80
2017-11-10T07:59:04.235Z,80
2017-11-10T08:00:06.127Z,75
2017-11-10T08:01:08.008Z,70
2017-11-10T08:02:09.835Z,80
2017-11-10T08:03:11.654Z,80
2017-11-10T08:04:13.538Z,85
2017-11-10T08:05:15.424Z,90
2017-11-10T08:06:17.310Z,95
2017-11-10T08:07:31.466Z,105
2017-11-10T08:08:33.351Z,120
2017-11-10T08:09:35.237Z,130
2017-11-10T08:10:37.128Z,140
2017-11-10T08:11:38.950Z,135
2017-11-10T08:12:40.772Z,135
2017-11-10T08:13:42.659Z,130
2017-11-10T08:14:44.576Z,120
2017-11-10T08:15:46.437Z,115
2017-11-10T08:17:00.596Z,105
2017-11-10T08:18:02.485Z,105
2017-11-10T08:19:04.367Z,115
2017-11-10T08:20:06.257Z,110
2017-11-10T08:21:08.083Z,100
2017-11-10T08:22:09.906Z,80
2017-11-10T08:23:11.792Z,75
2017-11-10T08:24:13.685Z,80
2017-11-10T08:25:15.564Z,80
2017-11-10T08:26:29.719Z,70
2017-11-10T08:27:31.601Z,75
2017-11-10T08:28:33.487Z,65
2017-11-10T08:29:35.376Z,60
2017-11-10T08:30:37.199Z,55
2017-11-10T08:31:39.285Z,55
2017-11-10T08:32:41.137Z,60
2017-11-10T08:33:43.031Z,60
2017-11-10T08:34:44.910Z,65
2017-11-10T08:35:59.065Z,70
2017-11-10T08:37:00.950Z,70
2017-11-10T08:38:02.844Z,75
2017-11-10T08:39:04.729Z,75
2017-11-10T08:40:06.551Z,80
2017-11-10T08:41:08.374Z,75
2017-11-10T08:42:10.254Z,80
2017-11-10T08:43:12.144Z,80
2017-11-10T08:44:14.026Z,80
2017-11-10T08:45:28.189Z,80
2017-11-10T08:46:30.072Z,80
2017-11-10T08:47:31.956Z,80
2017-11-10T08:48:33.845Z,80
2017-11-10T08:49:35.670Z,80
2017-11-10T08:50:37.495Z,80
2017-11-10T08:51:39.371Z,85
2017-11-10T08:52:41.256Z,90
2017-11-10T08:53:43.148Z,90
2017-11-10T08:54:57.308Z,100
2017-11-10T08:55:59.191Z,105
2017-11-10T08:57:01.076Z,100
2017-11-10T08:58:02.965Z,90
2017-11-10T08:59:04.788Z,90
2017-11-10T09:00:06.610Z,95
2017-11-10T09:01:08.494Z,100
2017-11-10T09:02:10.376Z,95
2017-11-10T09:03:12.264Z,90
2017-11-10T09:04:26.419Z,80
2017-11-10T09:05:28.304Z,80
2017-11-10T09:06:30.189Z,80
2017-11-10T09:07:32.076Z,80
2017-11-10T09:08:33.897Z,85
2017-11-10T09:09:35.717Z,85
2017-11-10T09:10:37.601Z,90
2017-11-10T09:11:39.487Z,100
2017-11-10T09:12:41.374Z,105
2017-11-10T09:13:55.529Z,115
2017-11-10T09:14:57.415Z,115
2017-11-10T09:15:59.301Z,115
2017-11-10T09:17:01.191Z,110
2017-11-10T09:18:03.017Z,115
2017-11-10T09:19:04.840Z,120
2017-11-10T09:20:06.727Z,135
2017-11-10T09:21:08.612Z,155
2017-11-10T09:22:10.510Z,155
2017-11-10T09:23:24.663Z,155
2017-11-10T09:24:26.551Z,160
2017-11-10T09:25:28.446Z,145
2017-11-10T09:26:30.333Z,140
2017-11-10T09:27:32.197Z,140
2017-11-10T09:28:34.018Z,140
2017-11-10T09:29:35.849Z,130
2017-11-10T09:30:37.726Z,125
2017-11-10T09:31:39.580Z,125
2017-11-10T09:32:53.730Z,125
2017-11-10T09:33:55.618Z,125
2017-11-10T09:34:57.506Z,135
2017-11-10T09:35:59.394Z,145
2017-11-10T09:37:01.219Z,145
2017-11-10T09:38:03.049Z,130
2017-11-10T09:39:04.929Z,125
2017-11-10T09:40:06.820Z,120
2017-11-10T09:41:08.669Z,120
2017-11-10T09:42:22.827Z,125
2017-11-10T09:43:24.709Z,120
2017-11-10T09:44:26.596Z,115
2017-11-10T09:45:28.485Z,110
2017-11-10T09:46:30.311Z,115
2017-11-10T09:47:32.134Z,115
2017-11-10T09:48:34.018Z,110
2017-11-10T09:49:35.903Z,105
2017-11-10T09:50:37.792Z,100
2017-11-10T09:51:51.956Z,100
2017-11-10T09:52:53.839Z,100
2017-11-10T09:53:55.725Z,100
2017-11-10T09:54:57.614Z,95
2017-11-10T09:55:59.439Z,90
2017-11-10T09:57:01.259Z,85
2017-11-10T09:58:03.144Z,85
2017-11-10T09:59:05.026Z,80
2017-11-10T10:00:06.915Z,85
2017-11-10T10:01:21.070Z,90
2017-11-10T10:02:22.956Z,95
2017-11-10T10:03:24.842Z,100
2017-11-10T10:04:26.733Z,105
2017-11-10T10:05:28.561Z,105
2017-11-10T10:06:30.379Z,105
2017-11-10T10:07:32.263Z,115
2017-11-10T10:08:34.154Z,120
2017-11-10T10:09:36.045Z,125
2017-11-10T10:10:50.205Z,135
2017-11-10T10:11:52.102Z,145
2017-11-10T10:12:53.978Z,150
2017-11-10T10:13:55.870Z,160
2017-11-10T10:14:57.693Z,175
2017-11-10T10:15:59.514Z,190
2017-11-10T10:17:01.400Z,215
2017-11-10T10:18:03.285Z,245
2017-11-10T10:19:05.176Z,265
2017-11-10T10:20:19.331Z,280
2017-11-10T10:21:21.219Z,275
2017-11-10T10:22:23.106Z,285
2017-11-10T10:23:24.998Z,290
2017-11-10T10:24:26.822Z,300
2017-11-10T10:25:28.645Z,285
2017-11-10T10:26:30.528Z,270
2017-11-10T10:27:32.415Z,265
2017-11-10T10:28:34.304Z,270
2017-11-10T10:29:48.461Z,280
2017-11-10T10:30:50.347Z,280
2017-11-10T10:31:52.236Z,275
2017-11-10T10:32:54.130Z,265
2017-11-10T10:33:55.953Z,240
2017-11-10T10:34:57.776Z,220
2017-11-10T10:35:59.662Z,215
2017-11-10T10:37:01.548Z,215
2017-11-10T10:38:03.437Z,220
2017-11-10T10:39:17.595Z,225
2017-11-10T10:40:19.483Z,225
2017-11-10T10:41:21.374Z,215
2017-11-10T10:42:23.267Z,210
2017-11-10T10:43:25.088Z,205
2017-11-10T10:44:26.911Z,205
2017-11-10T10:45:28.799Z,200
2017-11-10T10:46:30.684Z,185
2017-11-10T10:47:32.574Z,175
2017-11-10T10:48:46.733Z,165
2017-11-10T10:49:48.619Z,165
2017-11-10T10:50:50.507Z,165
2017-11-10T10:51:52.399Z,170
2017-11-10T10:52:54.221Z,165
2017-11-10T10:53:56.044Z,170
2017-11-10T10:54:57.931Z,160
2017-11-10T10:55:59.820Z,155
2017-11-10T10:57:01.708Z,155
2017-11-10T10:58:15.926Z,160
2017-11-10T10:59:17.801Z,165
2017-11-10T11:00:19.692Z,165
2017-11-10T11:01:21.579Z,165
2017-11-10T11:02:23.402Z,155
2017-11-10T11:03:25.223Z,150
2017-11-10T11:04:27.110Z,150
2017-11-10T11:05:28.999Z,155
2017-11-10T11:06:30.889Z,155
2017-11-10T11:07:45.098Z,155
2017-11-10T11:08:46.985Z,165
2017-11-10T11:09:48.873Z,175
2017-11-10T11:10:50.771Z,180
2017-11-10T11:11:52.585Z,185
2017-11-10T11:12:54.406Z,195
2017-11-10T11:13:56.293Z,195
2017-11-10T11:14:58.182Z,200
2017-11-10T11:16:00.069Z,205
2017-11-10T11:17:14.231Z,200
2017-11-10T11:18:16.113Z,195
2017-11-10T11:19:18.000Z,200
2017-11-10T11:20:19.916Z,205
2017-11-10T11:21:21.719Z,205
2017-11-10T11:22:23.540Z,205
2017-11-10T11:23:25.428Z,210
2017-11-10T11:24:27.323Z,220
2017-11-10T11:25:29.211Z,230
2017-11-10T11:26:43.363Z,235
2017-11-10T11:27:45.249Z,225
2017-11-10T11:28:47.135Z,205
2017-11-10T11:29:49.029Z,175
2017-11-10T11:30:50.849Z,160
2017-11-10T11:31:52.670Z,165
2017-11-10T11:32:54.555Z,165
2017-11-10T11:33:56.453Z,175
2017-11-10T11:34:58.355Z,185
2017-11-10T11:36:12.528Z,200
2017-11-10T11:37:14.418Z,220
2017-11-10T11:38:16.302Z,200
2017-11-10T11:39:18.193Z,185
2017-11-10T11:40:20.017Z,180
2017-11-10T11:41:21.838Z,185
2017-11-10T11:42:23.725Z,195
2017-11-10T11:43:25.609Z,195
2017-11-10T11:44:27.498Z,195
2017-11-10T11:45:41.656Z,185
2017-11-10T11:46:43.542Z,175
2017-11-10T11:47:45.429Z,160
2017-11-10T11:48:47.320Z,160
2017-11-10T11:49:49.144Z,160
2017-11-10T11:50:50.968Z,160
2017-11-10T11:51:52.852Z,155
2017-11-10T11:52:54.741Z,150
2017-11-10T11:53:56.630Z,150
2017-11-10T11:55:10.786Z,135
2017-11-10T11:56:12.672Z,125
2017-11-10T11:57:14.561Z,115
2017-11-10T11:58:16.453Z,110
2017-11-10T11:59:18.277Z,100
2017-11-10T12:00:20.105Z,100
2017-11-10T12:01:21.985Z,100
2017-11-10T12:02:23.875Z,100
2017-11-10T12:03:25.764Z,100
2017-11-10T12:04:39.904Z,100
2017-11-10T12:05:41.790Z,90
2017-11-10T12:06:43.679Z,95
2017-11-10T12:07:45.568Z,105
2017-11-10T12:08:47.391Z,110
2017-11-10T12:09:49.210Z,110
2017-11-10T12:10:51.093Z,105
2017-11-10T12:11:52.979Z,115
2017-11-10T12:12:54.870Z,110
2017-11-10T12:14:09.076Z,130
2017-11-10T12:15:10.962Z,130
2017-11-10T12:16:12.862Z,135
2017-11-10T12:17:14.741Z,145
2017-11-10T12:18:16.581Z,150
2017-11-10T12:19:18.389Z,155
2017-11-10T12:20:20.275Z,175
2017-11-10T12:21:22.160Z,160
2017-11-10T12:22:24.049Z,175
2017-11-10T12:23:38.204Z,210
2017-11-10T12:24:40.090Z,215
2017-11-10T12:25:41.977Z,200
2017-11-10T12:26:43.868Z,175
2017-11-10T12:27:45.697Z,185
2017-11-10T12:28:47.515Z,190
2017-11-10T12:29:49.401Z,185
2017-11-10T12:30:51.286Z,185
2017-11-10T12:31:53.176Z,175
2017-11-10T12:33:07.334Z,175
2017-11-10T12:34:09.226Z,205
2017-11-10T12:35:11.109Z,230
2017-11-10T12:36:12.998Z,250
2017-11-10T12:37:14.820Z,245
2017-11-10T12:38:16.643Z,240
2017-11-10T12:39:18.535Z,235
2017-11-10T12:40:20.414Z,245
2017-11-10T12:41:22.305Z,240
2017-11-10T12:42:36.461Z,255
2017-11-10T12:43:38.349Z,260
2017-11-10T12:44:40.236Z,280
2017-11-10T12:45:42.127Z,265
2017-11-10T12:46:43.949Z,255
2017-11-10T12:47:45.774Z,230
2017-11-10T12:48:47.657Z,195
2017-11-10T12:49:49.543Z,195
2017-11-10T12:50:51.435Z,195
2017-11-10T12:52:05.593Z,180
2017-11-10T12:53:07.484Z,190
2017-11-10T12:54:09.369Z,180
2017-11-10T12:55:11.260Z,155
2017-11-10T12:56:13.085Z,135
2017-11-10T12:57:14.907Z,145
2017-11-10T12:58:16.796Z,160
2017-11-10T12:59:18.681Z,165
2017-11-10T13:00:20.570Z,170
2017-11-10T13:01:34.777Z,170
2017-11-10T13:02:36.667Z,170
2017-11-10T13:03:38.553Z,160
2017-11-10T13:04:40.445Z,180
2017-11-10T13:05:42.267Z,185
2017-11-10T13:06:44.091Z,180
2017-11-10T13:07:45.981Z,180
2017-11-10T13:08:47.865Z,155
2017-11-10T13:09:49.754Z,155
2017-11-10T13:11:03.961Z,155
2017-11-10T13:12:05.848Z,145
2017-11-10T13:13:07.736Z,145
2017-11-10T13:14:09.629Z,150
2017-11-10T13:15:11.452Z,155
2017-11-10T13:16:13.273Z,155
2017-11-10T13:17:15.163Z,155
2017-11-10T13:18:17.050Z,150
2017-11-10T13:19:18.938Z,150
2017-11-10T13:20:33.095Z,150
2017-11-10T13:21:34.980Z,150
2017-11-10T13:22:36.867Z,150
2017-11-10T13:23:38.757Z,155
2017-11-10T13:24:40.580Z,160
2017-11-10T13:25:42.401Z,160
2017-11-10T13:26:44.286Z,160
2017-11-10T13:27:46.172Z,155
2017-11-10T13:28:48.063Z,155
2017-11-10T13:30:02.221Z,150
2017-11-10T13:31:04.105Z,150
2017-11-10T13:32:05.994Z,140
2017-11-10T13:33:07.888Z,135
2017-11-10T13:34:09.707Z,130
2017-11-10T13:35:11.530Z,125
2017-11-10T13:36:13.416Z,120
2017-11-10T13:37:15.300Z,120
2017-11-10T13:38:17.190Z,120
2017-11-10T13:39:31.349Z,115
2017-11-10T13:40:33.238Z,110
2017-11-10T13:41:35.122Z,105
2017-11-10T13:42:37.017Z,95
2017-11-10T13:43:38.839Z,90
2017-11-10T13:44:40.658Z,85
2017-11-10T13:45:42.543Z,85
2017-11-10T13:46:44.427Z,90
2017-11-10T13:47:46.317Z,95
2017-11-10T13:49:00.475Z,100
2017-11-10T13:50:02.363Z,100
2017-11-10T13:51:04.247Z,105
2017-11-10T13:52:06.137Z,110
2017-11-10T13:53:07.960Z,120
2017-11-10T13:54:09.781Z,120
2017-11-10T13:55:11.666Z,120
2017-11-10T13:56:13.550Z,120
2017-11-10T13:57:15.441Z,115
2017-11-10T13:58:29.646Z,110
2017-11-10T13:59:31.532Z,105
2017-11-10T14:00:33.423Z,100
2017-11-10T14:01:35.314Z,100
2017-11-10T14:02:37.136Z,95
2017-11-10T14:03:38.954Z,90
2017-11-10T14:04:40.838Z,90
2017-11-10T14:05:42.725Z,85
2017-11-10T14:06:44.615Z,80
2017-11-10T14:07:58.770Z,80
2017-11-10T14:09:00.654Z,80
2017-11-10T14:10:02.543Z,80
2017-11-10T14:11:04.434Z,80
2017-11-10T14:12:06.253Z,80
2017-11-10T14:13:08.075Z,80
2017-11-10T14:14:09.958Z,80
2017-11-10T14:15:11.844Z,80
2017-11-10T14:16:13.731Z,70
2017-11-10T14:17:27.938Z,65
2017-11-10T14:18:29.822Z,65
2017-11-10T14:19:31.709Z,55
2017-11-10T14:20:33.603Z,50
2017-11-10T14:21:35.426Z,45
2017-11-10T14:22:37.242Z,45
2017-11-10T14:23:39.127Z,45
2017-11-10T14:24:41.011Z,40
2017-11-10T14:25:42.898Z,35
2017-11-10T14:26:57.104Z,40
2017-11-10T14:27:58.984Z,35
2017-11-10T14:29:00.868Z,40
2017-11-10T14:30:02.764Z,35
2017-11-10T14:31:05.115Z,35
2017-11-10T14:32:07.828Z,35
2017-11-10T14:33:10.053Z,30
2017-11-10T14:34:12.581Z,30
2017-11-10T14:35:15.089Z,30
2017-11-10T14:36:31.074Z,30
2017-11-10T14:37:33.266Z,30
2017-11-10T14:38:35.802Z,25
2017-11-10T14:39:38.318Z,25
2017-11-10T14:40:41.180Z,25
2017-11-10T14:41:44.441Z,25
2017-11-10T14:42:47.128Z,20
2017-11-10T14:43:49.752Z,20
2017-11-10T14:44:52.333Z,20
2017-11-10T14:46:07.583Z,20
2017-11-10T14:48:27.763Z,15
2017-11-10T14:49:30.594Z,15
2017-11-10T14:50:33.570Z,15
2017-11-10T14:51:37.351Z,10
2017-11-10T14:52:40.185Z,10
2017-11-10T14:53:42.704Z,10
2017-11-10T14:54:44.887Z,10
2017-11-10T14:55:59.726Z,10
2017-11-10T14:57:02.671Z,10
2017-11-10T14:58:05.430Z,5
2017-11-10T14:59:07.953Z,5
2017-11-10T15:00:10.418Z,5
2017-11-10T15:01:13.368Z,5
2017-11-10T15:02:15.935Z,5
2017-11-10T15:03:18.650Z,5
2017-11-10T15:04:20.955Z,5
2017-11-10T15:05:36.501Z,5
2017-11-10T15:06:38.676Z,5